Oakfield, New York
Current Conditions -  °F | °C
As of 12:54 AM on Thursday 29 Jan 2015 (Local Time) from KBUF Reporting Station
Broken Clouds Broken Clouds  
Wind Chill:   Ceiling: 25000
Heat Index: 11°   Visibility: 10mi
Dew Point:   Wind: 5mph
Humidity: 73%   Direction: 150°SSE
Pressure: 30.24"   Gusts: NA
Location:  43.07°N, 78.27°W
Report Text: KBUF 290554Z 15004KT 10SM BKN250 M12/M16 A3024 RMK AO2 SLP257 4/004 T11171156 11083 21122 58012
Loading
Personal Weather Stations






























Interactive Weather Map New forecast layout! Learn more

10-Day Weather Forecast

Advertisements
Track Severe Weather on mobile